sensor_id;sensor_type;location;lat;lon;timestamp;temperature;humidity
18581;DHT22;9420;50.876;7.012;2022-09-03T00:01:34;17.20;99.90
18581;DHT22;9420;50.876;7.012;2022-09-03T00:04:11;17.10;99.90
18581;DHT22;9420;50.876;7.012;2022-09-03T00:06:49;17.00;99.90
18581;DHT22;9420;50.876;7.012;2022-09-03T00:09:26;17.00;99.90
18581;DHT22;9420;50.876;7.012;2022-09-03T00:12:02;16.90;99.90
18581;DHT22;9420;50.876;7.012;2022-09-03T00:14:38;16.80;99.90
18581;DHT22;9420;50.876;7.012;2022-09-03T00:17:12;16.70;99.90
18581;DHT22;9420;50.876;7.012;2022-09-03T00:19:45;16.60;99.90
18581;DHT22;9420;50.876;7.012;2022-09-03T00:22:24;16.50;99.90
18581;DHT22;9420;50.876;7.012;2022-09-03T00:24:56;16.40;99.90
18581;DHT22;9420;50.876;7.012;2022-09-03T00:27:26;16.40;99.90
18581;DHT22;9420;50.876;7.012;2022-09-03T00:29:58;16.30;99.90
18581;DHT22;9420;50.876;7.012;2022-09-03T00:32:36;16.30;99.90
18581;DHT22;9420;50.876;7.012;2022-09-03T00:35:12;16.20;99.90
18581;DHT22;9420;50.876;7.012;2022-09-03T00:37:43;16.30;99.90
18581;DHT22;9420;50.876;7.012;2022-09-03T00:40:19;16.30;99.90
18581;DHT22;9420;50.876;7.012;2022-09-03T00:43:04;16.20;99.90
18581;DHT22;9420;50.876;7.012;2022-09-03T00:45:43;16.20;99.90
18581;DHT22;9420;50.876;7.012;2022-09-03T00:48:22;16.10;99.90
18581;DHT22;9420;50.876;7.012;2022-09-03T00:51:04;16.10;99.90
18581;DHT22;9420;50.876;7.012;2022-09-03T00:53:46;16.20;99.90
18581;DHT22;9420;50.876;7.012;2022-09-03T00:56:26;16.30;99.90
18581;DHT22;9420;50.876;7.012;2022-09-03T00:59:21;16.40;99.90
18581;DHT22;9420;50.876;7.012;2022-09-03T01:02:05;16.50;99.90
18581;DHT22;9420;50.876;7.012;2022-09-03T01:04:51;16.50;99.90
18581;DHT22;9420;50.876;7.012;2022-09-03T01:07:33;16.50;99.90
18581;DHT22;9420;50.876;7.012;2022-09-03T01:10:15;16.50;99.90
18581;DHT22;9420;50.876;7.012;2022-09-03T01:12:55;16.50;99.90
18581;DHT22;9420;50.876;7.012;2022-09-03T01:15:33;16.60;99.90
18581;DHT22;9420;50.876;7.012;2022-09-03T01:18:16;16.50;99.90
18581;DHT22;9420;50.876;7.012;2022-09-03T01:20:54;16.50;99.90
18581;DHT22;9420;50.876;7.012;2022-09-03T01:24:17;16.40;99.90
18581;DHT22;9420;50.876;7.012;2022-09-03T01:27:20;16.50;99.90
18581;DHT22;9420;50.876;7.012;2022-09-03T01:30:02;16.40;99.90
18581;DHT22;9420;50.876;7.012;2022-09-03T01:32:38;16.30;99.90
18581;DHT22;9420;50.876;7.012;2022-09-03T01:35:17;16.20;99.90
18581;DHT22;9420;50.876;7.012;2022-09-03T01:38:04;16.10;99.90
18581;DHT22;9420;50.876;7.012;2022-09-03T01:40:47;16.00;99.90
18581;DHT22;9420;50.876;7.012;2022-09-03T01:43:51;16.00;99.90
18581;DHT22;9420;50.876;7.012;2022-09-03T01:46:34;16.00;99.90
18581;DHT22;9420;50.876;7.012;2022-09-03T01:49:10;15.90;99.90
18581;DHT22;9420;50.876;7.012;2022-09-03T01:51:50;15.90;99.90
18581;DHT22;9420;50.876;7.012;2022-09-03T01:54:48;15.90;99.90
18581;DHT22;9420;50.876;7.012;2022-09-03T01:57:40;15.90;99.90
18581;DHT22;9420;50.876;7.012;2022-09-03T02:00:15;15.90;99.90
18581;DHT22;9420;50.876;7.012;2022-09-03T02:02:48;15.80;99.90
18581;DHT22;9420;50.876;7.012;2022-09-03T02:05:18;15.80;99.90
18581;DHT22;9420;50.876;7.012;2022-09-03T02:07:50;15.80;99.90
18581;DHT22;9420;50.876;7.012;2022-09-03T02:10:25;15.90;99.90
18581;DHT22;9420;50.876;7.012;2022-09-03T02:12:59;15.90;99.90
18581;DHT22;9420;50.876;7.012;2022-09-03T02:15:30;15.80;99.90
18581;DHT22;9420;50.876;7.012;2022-09-03T02:18:04;15.90;99.90
18581;DHT22;9420;50.876;7.012;2022-09-03T02:20:36;15.90;99.90
18581;DHT22;9420;50.876;7.012;2022-09-03T02:23:06;15.90;99.90
18581;DHT22;9420;50.876;7.012;2022-09-03T02:25:37;15.80;99.90
18581;DHT22;9420;50.876;7.012;2022-09-03T02:28:08;15.70;99.90
18581;DHT22;9420;50.876;7.012;2022-09-03T02:30:36;15.80;99.90
18581;DHT22;9420;50.876;7.012;2022-09-03T02:33:04;15.70;99.90
18581;DHT22;9420;50.876;7.012;2022-09-03T02:35:32;15.60;99.90
18581;DHT22;9420;50.876;7.012;2022-09-03T02:38:08;15.60;99.90
18581;DHT22;9420;50.876;7.012;2022-09-03T02:40:37;15.50;99.90
18581;DHT22;9420;50.876;7.012;2022-09-03T02:43:06;15.50;99.90
18581;DHT22;9420;50.876;7.012;2022-09-03T02:45:42;15.40;99.90
18581;DHT22;9420;50.876;7.012;2022-09-03T02:48:18;15.30;99.90
18581;DHT22;9420;50.876;7.012;2022-09-03T02:50:48;15.30;99.90
18581;DHT22;9420;50.876;7.012;2022-09-03T02:53:16;15.30;99.90
18581;DHT22;9420;50.876;7.012;2022-09-03T02:55:43;15.30;99.90
18581;DHT22;9420;50.876;7.012;2022-09-03T02:58:10;15.30;99.90
18581;DHT22;9420;50.876;7.012;2022-09-03T03:00:38;15.40;99.90
18581;DHT22;9420;50.876;7.012;2022-09-03T03:03:06;15.50;99.90
18581;DHT22;9420;50.876;7.012;2022-09-03T03:05:42;15.60;99.90
18581;DHT22;9420;50.876;7.012;2022-09-03T03:08:14;15.60;99.90
18581;DHT22;9420;50.876;7.012;2022-09-03T03:10:43;15.70;99.90
18581;DHT22;9420;50.876;7.012;2022-09-03T03:13:10;15.80;99.90
18581;DHT22;9420;50.876;7.012;2022-09-03T03:15:37;15.80;99.90
18581;DHT22;9420;50.876;7.012;2022-09-03T03:18:05;15.80;99.90
18581;DHT22;9420;50.876;7.012;2022-09-03T03:20:37;15.80;99.90
18581;DHT22;9420;50.876;7.012;2022-09-03T03:23:05;15.80;99.90
18581;DHT22;9420;50.876;7.012;2022-09-03T03:25:34;15.80;99.90
18581;DHT22;9420;50.876;7.012;2022-09-03T03:28:03;15.80;99.90
18581;DHT22;9420;50.876;7.012;2022-09-03T03:30:32;15.90;99.90
18581;DHT22;9420;50.876;7.012;2022-09-03T03:33:00;15.90;99.90
18581;DHT22;9420;50.876;7.012;2022-09-03T03:35:27;15.80;99.90
18581;DHT22;9420;50.876;7.012;2022-09-03T03:37:56;15.80;99.90
18581;DHT22;9420;50.876;7.012;2022-09-03T03:40:24;15.70;99.90
18581;DHT22;9420;50.876;7.012;2022-09-03T03:42:51;15.70;99.90
18581;DHT22;9420;50.876;7.012;2022-09-03T03:45:19;15.80;99.90
18581;DHT22;9420;50.876;7.012;2022-09-03T03:47:46;15.80;99.90
18581;DHT22;9420;50.876;7.012;2022-09-03T03:50:13;15.90;99.90
18581;DHT22;9420;50.876;7.012;2022-09-03T03:52:41;15.80;99.90
18581;DHT22;9420;50.876;7.012;2022-09-03T03:55:10;15.90;99.90
18581;DHT22;9420;50.876;7.012;2022-09-03T03:57:37;16.00;99.90
18581;DHT22;9420;50.876;7.012;2022-09-03T04:00:05;16.00;99.90
18581;DHT22;9420;50.876;7.012;2022-09-03T04:02:33;16.00;99.90
18581;DHT22;9420;50.876;7.012;2022-09-03T04:05:00;16.00;99.90
18581;DHT22;9420;50.876;7.012;2022-09-03T04:07:27;16.00;99.90
18581;DHT22;9420;50.876;7.012;2022-09-03T04:09:54;16.10;99.90
18581;DHT22;9420;50.876;7.012;2022-09-03T04:12:23;16.20;99.90
18581;DHT22;9420;50.876;7.012;2022-09-03T04:14:50;16.30;99.90
18581;DHT22;9420;50.876;7.012;2022-09-03T04:17:17;16.30;99.90
18581;DHT22;9420;50.876;7.012;2022-09-03T04:19:44;16.30;99.90
18581;DHT22;9420;50.876;7.012;2022-09-03T04:22:14;16.30;99.90
18581;DHT22;9420;50.876;7.012;2022-09-03T04:24:41;16.40;99.90
18581;DHT22;9420;50.876;7.012;2022-09-03T04:27:08;16.40;99.90
18581;DHT22;9420;50.876;7.012;2022-09-03T04:29:36;16.40;99.90
18581;DHT22;9420;50.876;7.012;2022-09-03T04:32:03;16.40;99.90
18581;DHT22;9420;50.876;7.012;2022-09-03T04:34:48;16.50;99.90
18581;DHT22;9420;50.876;7.012;2022-09-03T04:37:15;16.40;99.90
18581;DHT22;9420;50.876;7.012;2022-09-03T04:39:44;16.50;99.90
18581;DHT22;9420;50.876;7.012;2022-09-03T04:42:11;16.40;99.90
18581;DHT22;9420;50.876;7.012;2022-09-03T04:44:40;16.50;99.90
18581;DHT22;9420;50.876;7.012;2022-09-03T04:47:07;16.50;99.90
18581;DHT22;9420;50.876;7.012;2022-09-03T04:49:34;16.40;99.90
18581;DHT22;9420;50.876;7.012;2022-09-03T04:52:01;16.30;99.90
18581;DHT22;9420;50.876;7.012;2022-09-03T04:54:28;16.30;99.90
18581;DHT22;9420;50.876;7.012;2022-09-03T04:56:55;16.30;99.90
18581;DHT22;9420;50.876;7.012;2022-09-03T04:59:24;16.40;99.90
18581;DHT22;9420;50.876;7.012;2022-09-03T05:01:52;16.40;99.90
18581;DHT22;9420;50.876;7.012;2022-09-03T05:04:21;16.40;99.90
18581;DHT22;9420;50.876;7.012;2022-09-03T05:06:48;16.40;99.90
18581;DHT22;9420;50.876;7.012;2022-09-03T05:09:15;16.40;99.90
18581;DHT22;9420;50.876;7.012;2022-09-03T05:11:42;16.40;99.90
18581;DHT22;9420;50.876;7.012;2022-09-03T05:14:09;16.30;99.90
18581;DHT22;9420;50.876;7.012;2022-09-03T05:16:37;16.30;99.90
18581;DHT22;9420;50.876;7.012;2022-09-03T05:19:06;16.30;99.90
18581;DHT22;9420;50.876;7.012;2022-09-03T05:21:33;16.20;99.90
18581;DHT22;9420;50.876;7.012;2022-09-03T05:24:02;16.20;99.90
18581;DHT22;9420;50.876;7.012;2022-09-03T05:26:31;16.30;99.90
18581;DHT22;9420;50.876;7.012;2022-09-03T05:29:03;16.40;99.90
18581;DHT22;9420;50.876;7.012;2022-09-03T05:31:33;16.40;99.90
18581;DHT22;9420;50.876;7.012;2022-09-03T05:34:04;16.50;99.90
18581;DHT22;9420;50.876;7.012;2022-09-03T05:36:36;16.70;99.90
18581;DHT22;9420;50.876;7.012;2022-09-03T05:39:04;16.70;99.90
18581;DHT22;9420;50.876;7.012;2022-09-03T05:41:32;16.70;99.90
18581;DHT22;9420;50.876;7.012;2022-09-03T05:43:59;16.90;99.90
18581;DHT22;9420;50.876;7.012;2022-09-03T05:46:28;16.90;99.90
18581;DHT22;9420;50.876;7.012;2022-09-03T05:48:57;17.00;99.90
18581;DHT22;9420;50.876;7.012;2022-09-03T05:51:27;17.10;99.90
18581;DHT22;9420;50.876;7.012;2022-09-03T05:53:55;17.20;99.90
18581;DHT22;9420;50.876;7.012;2022-09-03T05:56:23;17.20;99.90
18581;DHT22;9420;50.876;7.012;2022-09-03T05:58:53;17.30;99.90
18581;DHT22;9420;50.876;7.012;2022-09-03T06:01:25;17.30;99.90
18581;DHT22;9420;50.876;7.012;2022-09-03T06:03:55;17.30;99.90
18581;DHT22;9420;50.876;7.012;2022-09-03T06:06:25;17.40;99.90
18581;DHT22;9420;50.876;7.012;2022-09-03T06:08:55;17.40;99.90
18581;DHT22;9420;50.876;7.012;2022-09-03T06:11:24;17.50;99.90
18581;DHT22;9420;50.876;7.012;2022-09-03T06:13:52;17.60;99.90
18581;DHT22;9420;50.876;7.012;2022-09-03T06:16:20;17.70;99.90
18581;DHT22;9420;50.876;7.012;2022-09-03T06:18:47;17.70;99.90
18581;DHT22;9420;50.876;7.012;2022-09-03T06:21:14;17.80;99.90
18581;DHT22;9420;50.876;7.012;2022-09-03T06:23:47;17.90;99.90
18581;DHT22;9420;50.876;7.012;2022-09-03T06:26:16;18.00;99.90
18581;DHT22;9420;50.876;7.012;2022-09-03T06:28:45;18.10;99.90
18581;DHT22;9420;50.876;7.012;2022-09-03T06:31:14;18.20;99.90
18581;DHT22;9420;50.876;7.012;2022-09-03T06:33:43;18.30;99.90
18581;DHT22;9420;50.876;7.012;2022-09-03T06:36:12;18.40;99.90
18581;DHT22;9420;50.876;7.012;2022-09-03T06:38:43;18.50;99.90
18581;DHT22;9420;50.876;7.012;2022-09-03T06:41:14;18.60;99.90
18581;DHT22;9420;50.876;7.012;2022-09-03T06:43:50;18.70;99.90
18581;DHT22;9420;50.876;7.012;2022-09-03T06:46:20;18.70;99.90
18581;DHT22;9420;50.876;7.012;2022-09-03T06:48:48;18.80;99.90
18581;DHT22;9420;50.876;7.012;2022-09-03T06:51:19;18.90;99.90
18581;DHT22;9420;50.876;7.012;2022-09-03T06:53:50;19.00;99.90
18581;DHT22;9420;50.876;7.012;2022-09-03T06:56:22;19.00;99.90
18581;DHT22;9420;50.876;7.012;2022-09-03T06:58:53;19.10;99.90
18581;DHT22;9420;50.876;7.012;2022-09-03T07:01:22;19.20;99.90
18581;DHT22;9420;50.876;7.012;2022-09-03T07:03:53;19.30;99.90
18581;DHT22;9420;50.876;7.012;2022-09-03T07:06:23;19.50;99.90
18581;DHT22;9420;50.876;7.012;2022-09-03T07:08:53;19.60;99.90
18581;DHT22;9420;50.876;7.012;2022-09-03T07:11:26;19.70;99.90
18581;DHT22;9420;50.876;7.012;2022-09-03T07:13:55;19.80;99.90
18581;DHT22;9420;50.876;7.012;2022-09-03T07:16:25;19.90;99.90
18581;DHT22;9420;50.876;7.012;2022-09-03T07:18:54;19.90;99.90
18581;DHT22;9420;50.876;7.012;2022-09-03T07:21:23;19.90;99.90
18581;DHT22;9420;50.876;7.012;2022-09-03T07:23:54;20.00;99.90
18581;DHT22;9420;50.876;7.012;2022-09-03T07:26:23;20.00;99.90
18581;DHT22;9420;50.876;7.012;2022-09-03T07:28:53;20.10;99.90
18581;DHT22;9420;50.876;7.012;2022-09-03T07:31:22;20.30;99.90
18581;DHT22;9420;50.876;7.012;2022-09-03T07:33:52;20.40;99.90
18581;DHT22;9420;50.876;7.012;2022-09-03T07:36:21;20.40;99.90
18581;DHT22;9420;50.876;7.012;2022-09-03T07:38:50;20.50;99.90
18581;DHT22;9420;50.876;7.012;2022-09-03T07:41:23;20.60;99.90
18581;DHT22;9420;50.876;7.012;2022-09-03T07:43:51;20.80;99.90
18581;DHT22;9420;50.876;7.012;2022-09-03T07:46:20;20.90;99.90
18581;DHT22;9420;50.876;7.012;2022-09-03T07:48:49;21.00;99.90
18581;DHT22;9420;50.876;7.012;2022-09-03T07:51:18;21.10;99.90
18581;DHT22;9420;50.876;7.012;2022-09-03T07:53:47;21.10;99.90
18581;DHT22;9420;50.876;7.012;2022-09-03T07:56:15;21.10;99.90
18581;DHT22;9420;50.876;7.012;2022-09-03T07:58:43;21.00;99.90
18581;DHT22;9420;50.876;7.012;2022-09-03T08:01:11;20.90;99.90
18581;DHT22;9420;50.876;7.012;2022-09-03T08:03:42;20.90;99.90
18581;DHT22;9420;50.876;7.012;2022-09-03T08:06:12;20.90;99.90
18581;DHT22;9420;50.876;7.012;2022-09-03T08:08:40;20.80;99.90
18581;DHT22;9420;50.876;7.012;2022-09-03T08:11:11;20.70;99.90
18581;DHT22;9420;50.876;7.012;2022-09-03T08:13:43;20.50;99.90
18581;DHT22;9420;50.876;7.012;2022-09-03T08:16:14;20.30;99.90
18581;DHT22;9420;50.876;7.012;2022-09-03T08:18:43;20.30;99.90
18581;DHT22;9420;50.876;7.012;2022-09-03T08:21:13;20.10;99.90
18581;DHT22;9420;50.876;7.012;2022-09-03T08:23:43;20.20;99.90
18581;DHT22;9420;50.876;7.012;2022-09-03T08:26:11;20.20;99.90
18581;DHT22;9420;50.876;7.012;2022-09-03T08:28:41;20.20;99.90
18581;DHT22;9420;50.876;7.012;2022-09-03T08:31:11;20.10;99.90
18581;DHT22;9420;50.876;7.012;2022-09-03T08:33:41;20.10;99.90
18581;DHT22;9420;50.876;7.012;2022-09-03T08:36:11;20.10;99.90
18581;DHT22;9420;50.876;7.012;2022-09-03T08:38:40;20.20;99.90
18581;DHT22;9420;50.876;7.012;2022-09-03T08:41:12;20.30;99.90
18581;DHT22;9420;50.876;7.012;2022-09-03T08:46:50;20.30;99.90
18581;DHT22;9420;50.876;7.012;2022-09-03T08:49:24;20.20;99.90
18581;DHT22;9420;50.876;7.012;2022-09-03T08:52:00;20.20;99.90
18581;DHT22;9420;50.876;7.012;2022-09-03T08:54:32;20.10;99.90
18581;DHT22;9420;50.876;7.012;2022-09-03T08:57:00;19.90;99.90
18581;DHT22;9420;50.876;7.012;2022-09-03T08:59:30;19.80;99.90
18581;DHT22;9420;50.876;7.012;2022-09-03T09:02:03;19.70;99.90
18581;DHT22;9420;50.876;7.012;2022-09-03T09:04:51;19.60;99.90
18581;DHT22;9420;50.876;7.012;2022-09-03T09:07:28;19.60;99.90
18581;DHT22;9420;50.876;7.012;2022-09-03T09:10:02;19.50;99.90
18581;DHT22;9420;50.876;7.012;2022-09-03T09:12:43;19.40;99.90
18581;DHT22;9420;50.876;7.012;2022-09-03T09:15:27;19.30;99.90
18581;DHT22;9420;50.876;7.012;2022-09-03T09:18:10;19.20;99.90
18581;DHT22;9420;50.876;7.012;2022-09-03T09:20:50;19.20;99.90
18581;DHT22;9420;50.876;7.012;2022-09-03T09:23:27;19.30;99.90
18581;DHT22;9420;50.876;7.012;2022-09-03T09:26:02;19.30;99.90
18581;DHT22;9420;50.876;7.012;2022-09-03T09:28:34;19.40;99.90
18581;DHT22;9420;50.876;7.012;2022-09-03T09:31:06;19.50;99.90
18581;DHT22;9420;50.876;7.012;2022-09-03T09:33:37;19.60;99.90
18581;DHT22;9420;50.876;7.012;2022-09-03T09:36:07;19.60;99.90
18581;DHT22;9420;50.876;7.012;2022-09-03T09:38:38;19.80;99.90
18581;DHT22;9420;50.876;7.012;2022-09-03T09:41:10;19.90;99.90
18581;DHT22;9420;50.876;7.012;2022-09-03T09:43:40;19.90;99.90
18581;DHT22;9420;50.876;7.012;2022-09-03T09:46:12;20.10;99.90
18581;DHT22;9420;50.876;7.012;2022-09-03T09:48:48;20.20;99.90
18581;DHT22;9420;50.876;7.012;2022-09-03T09:51:19;20.40;99.90
18581;DHT22;9420;50.876;7.012;2022-09-03T09:53:47;20.70;99.90
18581;DHT22;9420;50.876;7.012;2022-09-03T09:56:25;21.00;99.90
18581;DHT22;9420;50.876;7.012;2022-09-03T09:59:01;21.00;99.90
18581;DHT22;9420;50.876;7.012;2022-09-03T10:01:31;20.90;99.90
18581;DHT22;9420;50.876;7.012;2022-09-03T10:04:07;20.90;99.90
18581;DHT22;9420;50.876;7.012;2022-09-03T10:06:36;21.00;99.90
18581;DHT22;9420;50.876;7.012;2022-09-03T10:09:22;21.00;99.90
18581;DHT22;9420;50.876;7.012;2022-09-03T10:12:03;21.10;99.90
18581;DHT22;9420;50.876;7.012;2022-09-03T10:14:43;21.10;99.90
18581;DHT22;9420;50.876;7.012;2022-09-03T10:17:17;21.30;99.90
18581;DHT22;9420;50.876;7.012;2022-09-03T10:19:57;21.70;99.90
18581;DHT22;9420;50.876;7.012;2022-09-03T10:22:53;22.20;99.90
18581;DHT22;9420;50.876;7.012;2022-09-03T10:25:24;22.70;99.90
18581;DHT22;9420;50.876;7.012;2022-09-03T10:27:54;23.10;99.90
18581;DHT22;9420;50.876;7.012;2022-09-03T10:30:25;23.80;99.90
18581;DHT22;9420;50.876;7.012;2022-09-03T10:33:03;24.30;99.90
18581;DHT22;9420;50.876;7.012;2022-09-03T10:35:41;24.40;99.90
18581;DHT22;9420;50.876;7.012;2022-09-03T10:38:19;24.30;99.90
18581;DHT22;9420;50.876;7.012;2022-09-03T10:41:00;24.30;99.90
18581;DHT22;9420;50.876;7.012;2022-09-03T10:44:00;24.50;99.90
18581;DHT22;9420;50.876;7.012;2022-09-03T10:46:49;24.90;99.90
18581;DHT22;9420;50.876;7.012;2022-09-03T10:49:39;25.80;99.90
18581;DHT22;9420;50.876;7.012;2022-09-03T10:52:23;25.60;99.90
18581;DHT22;9420;50.876;7.012;2022-09-03T10:55:05;25.10;99.90
18581;DHT22;9420;50.876;7.012;2022-09-03T10:57:47;25.10;99.90
18581;DHT22;9420;50.876;7.012;2022-09-03T11:00:21;25.10;99.90
18581;DHT22;9420;50.876;7.012;2022-09-03T11:03:31;25.10;99.90
18581;DHT22;9420;50.876;7.012;2022-09-03T11:06:16;25.70;99.90
18581;DHT22;9420;50.876;7.012;2022-09-03T11:08:53;26.10;99.90
18581;DHT22;9420;50.876;7.012;2022-09-03T11:11:30;26.50;99.90
18581;DHT22;9420;50.876;7.012;2022-09-03T11:14:05;27.00;99.90
18581;DHT22;9420;50.876;7.012;2022-09-03T11:16:38;27.00;99.90
18581;DHT22;9420;50.876;7.012;2022-09-03T11:19:12;26.80;99.90
18581;DHT22;9420;50.876;7.012;2022-09-03T11:21:45;26.90;99.90
18581;DHT22;9420;50.876;7.012;2022-09-03T11:24:17;26.70;99.90
18581;DHT22;9420;50.876;7.012;2022-09-03T11:26:54;26.80;99.90
18581;DHT22;9420;50.876;7.012;2022-09-03T11:29:32;26.60;99.90
18581;DHT22;9420;50.876;7.012;2022-09-03T11:32:16;26.80;99.90
18581;DHT22;9420;50.876;7.012;2022-09-03T11:34:50;26.60;99.90
18581;DHT22;9420;50.876;7.012;2022-09-03T11:37:22;26.90;99.90
18581;DHT22;9420;50.876;7.012;2022-09-03T11:39:56;27.20;99.90
18581;DHT22;9420;50.876;7.012;2022-09-03T11:42:33;27.20;99.90
18581;DHT22;9420;50.876;7.012;2022-09-03T11:45:19;27.90;99.90
18581;DHT22;9420;50.876;7.012;2022-09-03T11:47:49;29.00;99.90
18581;DHT22;9420;50.876;7.012;2022-09-03T11:50:21;30.10;99.90
18581;DHT22;9420;50.876;7.012;2022-09-03T11:52:52;30.70;99.90
18581;DHT22;9420;50.876;7.012;2022-09-03T11:55:29;31.20;99.90
18581;DHT22;9420;50.876;7.012;2022-09-03T11:58:10;31.70;99.90
18581;DHT22;9420;50.876;7.012;2022-09-03T12:00:43;32.10;99.90
18581;DHT22;9420;50.876;7.012;2022-09-03T12:03:13;32.50;99.90
18581;DHT22;9420;50.876;7.012;2022-09-03T12:06:00;32.60;99.90
18581;DHT22;9420;50.876;7.012;2022-09-03T12:09:04;32.90;99.90
18581;DHT22;9420;50.876;7.012;2022-09-03T12:11:51;33.10;99.90
18581;DHT22;9420;50.876;7.012;2022-09-03T12:14:34;33.30;98.00
18581;DHT22;9420;50.876;7.012;2022-09-03T12:17:15;33.30;97.50
18581;DHT22;9420;50.876;7.012;2022-09-03T12:19:52;33.70;97.00
18581;DHT22;9420;50.876;7.012;2022-09-03T12:22:23;34.00;96.00
18581;DHT22;9420;50.876;7.012;2022-09-03T12:24:54;34.00;96.80
18581;DHT22;9420;50.876;7.012;2022-09-03T12:27:23;33.90;96.30
18581;DHT22;9420;50.876;7.012;2022-09-03T12:29:54;34.00;95.40
18581;DHT22;9420;50.876;7.012;2022-09-03T12:32:25;34.40;94.30
18581;DHT22;9420;50.876;7.012;2022-09-03T12:34:54;34.40;93.20
18581;DHT22;9420;50.876;7.012;2022-09-03T12:37:23;34.30;93.00
18581;DHT22;9420;50.876;7.012;2022-09-03T12:39:54;34.10;92.90
18581;DHT22;9420;50.876;7.012;2022-09-03T12:42:24;34.70;92.80
18581;DHT22;9420;50.876;7.012;2022-09-03T12:44:54;34.60;91.60
18581;DHT22;9420;50.876;7.012;2022-09-03T12:47:30;34.90;91.60
18581;DHT22;9420;50.876;7.012;2022-09-03T12:50:07;35.30;91.60
18581;DHT22;9420;50.876;7.012;2022-09-03T12:52:38;35.30;89.80
18581;DHT22;9420;50.876;7.012;2022-09-03T12:55:24;35.40;90.40
18581;DHT22;9420;50.876;7.012;2022-09-03T12:58:00;35.70;89.70
18581;DHT22;9420;50.876;7.012;2022-09-03T13:00:35;35.50;90.60
18581;DHT22;9420;50.876;7.012;2022-09-03T13:03:10;35.70;88.70
18581;DHT22;9420;50.876;7.012;2022-09-03T13:05:44;35.60;89.30
18581;DHT22;9420;50.876;7.012;2022-09-03T13:08:16;36.10;86.00
18581;DHT22;9420;50.876;7.012;2022-09-03T13:10:50;36.10;88.10
18581;DHT22;9420;50.876;7.012;2022-09-03T13:13:23;36.50;85.80
18581;DHT22;9420;50.876;7.012;2022-09-03T13:16:03;36.10;84.60
18581;DHT22;9420;50.876;7.012;2022-09-03T13:18:48;36.50;85.70
18581;DHT22;9420;50.876;7.012;2022-09-03T13:21:30;36.70;84.10
18581;DHT22;9420;50.876;7.012;2022-09-03T13:24:23;37.00;83.20
18581;DHT22;9420;50.876;7.012;2022-09-03T13:27:11;37.00;80.90
18581;DHT22;9420;50.876;7.012;2022-09-03T13:29:56;37.00;81.20
18581;DHT22;9420;50.876;7.012;2022-09-03T13:32:35;37.00;80.00
18581;DHT22;9420;50.876;7.012;2022-09-03T13:35:15;36.90;81.50
18581;DHT22;9420;50.876;7.012;2022-09-03T13:37:54;37.30;80.20
18581;DHT22;9420;50.876;7.012;2022-09-03T13:40:34;37.40;77.30
18581;DHT22;9420;50.876;7.012;2022-09-03T13:43:19;37.40;77.90
18581;DHT22;9420;50.876;7.012;2022-09-03T13:45:56;37.70;79.30
18581;DHT22;9420;50.876;7.012;2022-09-03T13:48:30;37.90;78.30
18581;DHT22;9420;50.876;7.012;2022-09-03T13:51:23;37.50;77.80
18581;DHT22;9420;50.876;7.012;2022-09-03T13:54:04;36.70;78.80
18581;DHT22;9420;50.876;7.012;2022-09-03T13:56:52;37.10;77.10
18581;DHT22;9420;50.876;7.012;2022-09-03T13:59:30;37.20;76.90
18581;DHT22;9420;50.876;7.012;2022-09-03T14:02:13;37.20;82.70
18581;DHT22;9420;50.876;7.012;2022-09-03T14:04:57;37.10;81.60
18581;DHT22;9420;50.876;7.012;2022-09-03T14:07:50;37.50;79.00
18581;DHT22;9420;50.876;7.012;2022-09-03T14:10:41;37.60;80.10
18581;DHT22;9420;50.876;7.012;2022-09-03T14:13:27;37.70;91.40
18581;DHT22;9420;50.876;7.012;2022-09-03T14:16:07;38.00;91.50
18581;DHT22;9420;50.876;7.012;2022-09-03T14:18:44;38.30;83.50
18581;DHT22;9420;50.876;7.012;2022-09-03T14:21:21;37.80;82.70
18581;DHT22;9420;50.876;7.012;2022-09-03T14:24:00;38.00;78.40
18581;DHT22;9420;50.876;7.012;2022-09-03T14:26:33;38.00;78.10
18581;DHT22;9420;50.876;7.012;2022-09-03T14:29:05;36.90;77.40
18581;DHT22;9420;50.876;7.012;2022-09-03T14:35:02;35.20;79.90
18581;DHT22;9420;50.876;7.012;2022-09-03T14:38:04;36.20;79.40
18581;DHT22;9420;50.876;7.012;2022-09-03T14:40:44;36.60;79.20
18581;DHT22;9420;50.876;7.012;2022-09-03T14:43:27;37.40;77.10
18581;DHT22;9420;50.876;7.012;2022-09-03T14:46:21;37.40;74.20
18581;DHT22;9420;50.876;7.012;2022-09-03T14:49:17;37.60;74.40
18581;DHT22;9420;50.876;7.012;2022-09-03T14:52:13;38.00;74.80
18581;DHT22;9420;50.876;7.012;2022-09-03T14:55:17;38.30;74.00
18581;DHT22;9420;50.876;7.012;2022-09-03T14:58:09;38.20;72.70
18581;DHT22;9420;50.876;7.012;2022-09-03T15:00:51;36.70;73.40
18581;DHT22;9420;50.876;7.012;2022-09-03T15:10:03;31.40;81.90
18581;DHT22;9420;50.876;7.012;2022-09-03T15:12:40;30.60;90.60
18581;DHT22;9420;50.876;7.012;2022-09-03T15:15:15;29.50;92.10
18581;DHT22;9420;50.876;7.012;2022-09-03T15:17:54;29.20;95.90
18581;DHT22;9420;50.876;7.012;2022-09-03T15:20:34;29.10;96.70
18581;DHT22;9420;50.876;7.012;2022-09-03T15:23:36;28.80;99.90
18581;DHT22;9420;50.876;7.012;2022-09-03T15:26:39;28.50;99.90
18581;DHT22;9420;50.876;7.012;2022-09-03T15:29:36;28.50;99.90
18581;DHT22;9420;50.876;7.012;2022-09-03T15:32:23;28.30;99.90
18581;DHT22;9420;50.876;7.012;2022-09-03T15:35:06;28.20;99.90
18581;DHT22;9420;50.876;7.012;2022-09-03T15:37:44;28.00;99.90
18581;DHT22;9420;50.876;7.012;2022-09-03T15:40:28;27.80;99.90
18581;DHT22;9420;50.876;7.012;2022-09-03T15:43:03;27.70;99.90
18581;DHT22;9420;50.876;7.012;2022-09-03T15:45:37;27.60;99.90
18581;DHT22;9420;50.876;7.012;2022-09-03T15:48:21;27.50;99.90
18581;DHT22;9420;50.876;7.012;2022-09-03T15:51:02;27.20;99.90
18581;DHT22;9420;50.876;7.012;2022-09-03T15:53:38;27.00;99.90
18581;DHT22;9420;50.876;7.012;2022-09-03T15:56:17;27.00;99.90
18581;DHT22;9420;50.876;7.012;2022-09-03T15:58:53;26.70;99.90
18581;DHT22;9420;50.876;7.012;2022-09-03T16:01:31;26.60;99.90
18581;DHT22;9420;50.876;7.012;2022-09-03T16:04:11;26.40;99.90
18581;DHT22;9420;50.876;7.012;2022-09-03T16:06:53;26.20;99.90
18581;DHT22;9420;50.876;7.012;2022-09-03T16:09:43;26.10;99.90
18581;DHT22;9420;50.876;7.012;2022-09-03T16:12:28;26.10;99.90
18581;DHT22;9420;50.876;7.012;2022-09-03T16:15:03;26.10;99.90
18581;DHT22;9420;50.876;7.012;2022-09-03T16:17:42;25.80;99.90
18581;DHT22;9420;50.876;7.012;2022-09-03T16:20:24;25.00;99.90
18581;DHT22;9420;50.876;7.012;2022-09-03T16:23:05;24.50;99.90
18581;DHT22;9420;50.876;7.012;2022-09-03T16:25:46;24.00;99.90
18581;DHT22;9420;50.876;7.012;2022-09-03T16:28:23;23.80;99.90
18581;DHT22;9420;50.876;7.012;2022-09-03T16:31:03;23.50;99.90
18581;DHT22;9420;50.876;7.012;2022-09-03T16:33:44;23.40;99.90
18581;DHT22;9420;50.876;7.012;2022-09-03T16:36:24;23.30;99.90
18581;DHT22;9420;50.876;7.012;2022-09-03T16:39:07;22.90;99.90
18581;DHT22;9420;50.876;7.012;2022-09-03T16:41:49;22.70;99.90
18581;DHT22;9420;50.876;7.012;2022-09-03T16:44:33;22.60;99.90
18581;DHT22;9420;50.876;7.012;2022-09-03T16:47:20;22.40;99.90
18581;DHT22;9420;50.876;7.012;2022-09-03T16:50:07;22.30;99.90